Terminal Aerodrome Forecast
Issued by NWS Boston, MA

Home | Current Version | Previous Version | Text Only | Print | Product List | Glossary On
Versions: 1 2 3 4 5 6 7 8 9 10 11 12 13 14 15 16 17 18 19 20 21 22 23 24 25 26 27 28 29 30 31 32 33 34 35 36 37 38 39 40 41 42 43
000
FTUS41 KBOX 210539
TAFPVD
TAF
KPVD 210539Z 2106/2206 00000KT P6SM BKN040 OVC080
     FM210900 17006KT 5SM BR BKN025
     FM211100 16007KT 4SM -SHRA BR BKN020
     FM211400 16007KT 3SM BR BKN020
     FM211600 16007KT P6SM BKN025
     FM211800 16007KT P6SM OVC035
     FM220000 VRB03KT 5SM BR BKN090=

USA.gov is the U.S. government's official web portal to all federal, state and local government web resources and services.